Terminal Aerodrome Forecast
Issued by NWS

Home | Current Version | Previous Version | Text Only | Print | Product List | Glossary On
Versions: 1 2 3 4 5 6 7 8 9 10 11 12 13 14 15 16
000
FTUS43 KAPX 012331
TAFAPN
TAF
KAPN 012331Z 0200/0224 12009KT P6SM BKN100
     FM020200 15009KT P6SM BKN120 WS010/21040KT
     FM020800 17009KT P6SM BKN150 WS010/22048KT
     FM021500 21010G17KT P6SM BKN040
     FM021900 23010G17KT 5SM -SHRA OVC040
     FM022200 28007KT P6SM SCT012 BKN250=

USA.gov is the U.S. government's official web portal to all federal, state and local government web resources and services.